Houari Boumediene Airport

DAAG · Algiers, 阿尔及利亚

罗盘
风向 的 风向 020° 阿尔及尔胡阿里·布迈丁机场 5/23
风: 4 kt, 2 beaufort

3 kt

2 kt
改变
0 ft 1.000 2.000 3.000 4.000 5.000
Cloud Cloud Cloud Cloud Cloud Cloud
BKN 2.300
METAR DAAS 070000Z 02004KT 8000 BKN023 05/00 Q1020

METAR 阿尔及尔胡阿里·布迈丁机场 - DAAG/ALG

阿尔及尔胡阿里·布迈丁机场是,阿尔及利亚中的大型机场。 该机场有2条跑道: 5/23 和 9/27. 该领域的国际民航组织标志是DAAG 它的国际航空运输协会代码是ALG.

这份报告是针对2023年2月7日 01:00, 当地时间在Ain Arnat Airport进行的。

机场观察

风向为020°,速度为4 kt。

可见度为8 km。

有碎云在2.300 ft的高度。 破损或更高的上限为2.300 ft。

温度为5 °C,阵风为2 °C。 海平面上的气压为1020 hPa (QNH)。

白天

今天,太阳从07:43升起,在18:18降落。 这适用于阿尔及尔胡阿里·布迈丁机场,世界夏令时可能有所不同。 当地时间与世界标准时间之间的时差为+1 小时。 当前,没有夏令时有效。

公司介绍

我们没有关于这个机场的公司信息。

体会

到Vliegles.nl去找飞行课程,跳伞和其他飞行体验。 浏览页面,了解阿尔及尔胡阿里·布迈丁机场附近所有可用的活动。 你也可以使用搜索功能来寻找你所在地附近的特定飞行课程、跳伞或其他飞行体验。

跑道

Id 标题 侧风 逆风 侧风 %
5/23 052°-232° 2 kt 3 kt 53 %
9/27 092°-272° 4 kt 1 kt 95 %

逆风成分最大的方向会被突出显示,并用于横风计算。 这并不一定意味着这个方向在使用。

乌云

2.300 ft BKN 碎云

温度 & 天气

温度 5 °C
露点 0 °C
相对湿度 70%
风寒 2 °C
Kp-index 3 (0-9)

白天

日出
07:34 (5:28)
中午
12:52
日落
18:11

小工具

你想在你的网站上有一个关于阿尔及尔胡阿里·布迈丁机场的当前航空天气(METAR)的小部件吗?

显示HTML代码

我们和第三方通过cookies跟踪您在我们网站上的互联网行为。如果你继续,我们认为你同意我们的饼干政策